Time;durP1;ratioP1;P1;durP2;ratioP2;P2;SDS_P1;SDS_P2;PMS_P1;PMS_P2;Temp;Humidity;BMP_temperature;BMP_pressure;BME280_temperature;BME280_humidity;BME280_pressure;Samples;Min_cycle;Max_cycle;Signal;HPM_P1;HPM_P2
2023/07/03 00:02:00;;;;;;;16.33;10.73;;;;;;;18.62;nan;100066.81;5037051;28;20009;-68
2023/07/03 00:04:33;;;;;;;16.92;9.80;;;;;;;18.63;nan;100076.44;5038032;28;20014;-67
2023/07/03 00:06:58;;;;;;;20.35;10.15;;;;;;;18.58;nan;100067.69;5036540;28;20129;-69
2023/07/03 00:09:24;;;;;;;12.70;8.85;;;;;;;18.58;nan;100079.16;5036068;28;20140;-69
2023/07/03 00:11:49;;;;;;;17.80;10.57;;;;;;;18.55;nan;100086.91;5037033;28;20103;-68
2023/07/03 00:14:14;;;;;;;21.55;11.55;;;;;;;18.50;nan;100071.78;5036914;28;20532;-68
2023/07/03 00:16:40;;;;;;;21.30;11.80;;;;;;;18.48;nan;100079.25;5032541;28;20029;-68
2023/07/03 00:19:05;;;;;;;17.95;10.50;;;;;;;18.45;nan;100082.50;5034723;28;20021;-68
2023/07/03 00:21:30;;;;;;;18.85;11.52;;;;;;;18.40;nan;100072.69;5039699;28;20025;-68
2023/07/03 00:23:56;;;;;;;18.92;12.10;;;;;;;18.43;nan;100088.13;5035066;28;20017;-68
2023/07/03 00:26:21;;;;;;;19.15;12.80;;;;;;;18.36;nan;100082.34;5035031;28;20018;-68
2023/07/03 00:28:47;;;;;;;19.42;12.35;;;;;;;18.28;nan;100083.75;5037274;28;20044;-68
2023/07/03 00:31:12;;;;;;;20.63;12.82;;;;;;;18.25;nan;100080.88;5036491;28;20017;-68
2023/07/03 00:33:37;;;;;;;16.20;11.63;;;;;;;18.24;nan;100092.59;5036134;28;20109;-68
2023/07/03 00:36:03;;;;;;;18.90;12.35;;;;;;;18.22;nan;100092.09;5036020;28;20013;-69
2023/07/03 00:38:28;;;;;;;20.63;11.55;;;;;;;18.20;nan;100096.94;5035480;28;20021;-68
2023/07/03 00:40:53;;;;;;;15.15;10.80;;;;;;;18.19;nan;100103.31;5035816;28;20567;-68
2023/07/03 00:43:19;;;;;;;21.35;11.00;;;;;;;18.15;nan;100095.13;5036502;28;20013;-68
2023/07/03 00:45:45;;;;;;;16.77;11.60;;;;;;;17.97;nan;100071.84;5036520;28;20021;-68
2023/07/03 00:48:10;;;;;;;16.38;10.75;;;;;;;18.14;nan;100106.84;5036765;28;20044;-68
2023/07/03 00:50:36;;;;;;;15.68;10.48;;;;;;;18.06;nan;100097.59;5034844;28;20017;-68
2023/07/03 00:53:05;;;;;;;15.57;9.48;;;;;;;18.10;nan;100105.81;5037174;28;20043;-67
2023/07/03 00:55:31;;;;;;;20.13;10.88;;;;;;;18.08;nan;100105.31;5037474;28;20020;-68
2023/07/03 00:57:57;;;;;;;16.17;9.50;;;;;;;18.00;nan;100101.38;5034036;28;20120;-67
2023/07/03 01:00:29;;;;;;;16.10;10.45;;;;;;;17.91;nan;100094.25;5034428;28;20108;-67
2023/07/03 01:03:13;;;;;;;12.25;8.30;;;;;;;17.90;nan;100100.69;5036318;28;20021;-69
2023/07/03 01:05:44;;;;;;;12.18;7.32;;;;;;;17.82;nan;100104.75;5035555;28;20071;-68
2023/07/03 01:08:11;;;;;;;17.58;10.10;;;;;;;17.59;nan;100069.75;5037480;28;20858;-69
2023/07/03 01:10:38;;;;;;;18.48;10.60;;;;;;;17.79;nan;100102.59;5034421;28;20160;-67
2023/07/03 01:13:08;;;;;;;15.73;9.65;;;;;;;17.79;nan;100108.75;5035790;28;20814;-69
2023/07/03 01:15:38;;;;;;;13.05;9.00;;;;;;;17.79;nan;100106.09;5032666;28;20021;-68
2023/07/03 01:18:06;;;;;;;12.32;8.07;;;;;;;17.82;nan;100120.75;5033493;28;20664;-68
2023/07/03 01:20:36;;;;;;;11.27;8.18;;;;;;;17.70;nan;100096.31;5035071;28;20032;-69
2023/07/03 01:23:27;;;;;;;12.70;7.50;;;;;;;17.81;nan;100121.78;5036552;28;20040;-68
2023/07/03 01:25:55;;;;;;;9.23;6.90;;;;;;;17.80;nan;100117.53;5052180;28;20120;-68
2023/07/03 01:28:24;;;;;;;11.40;7.50;;;;;;;17.75;nan;100110.38;5037764;28;20064;-68
2023/07/03 01:30:53;;;;;;;10.82;7.38;;;;;;;17.76;nan;100114.59;5034352;28;20028;-68
2023/07/03 01:33:25;;;;;;;12.27;7.95;;;;;;;17.68;nan;100099.25;5034903;28;20037;-68
2023/07/03 01:35:53;;;;;;;11.05;7.75;;;;;;;17.71;nan;100097.88;5040148;28;20476;-68
2023/07/03 01:38:21;;;;;;;6.90;6.20;;;;;;;17.76;nan;100113.81;5033649;28;20025;-68
2023/07/03 01:40:47;;;;;;;7.15;6.45;;;;;;;17.71;nan;100100.56;5035622;28;20502;-66
2023/07/03 01:43:13;;;;;;;7.07;6.38;;;;;;;17.72;nan;100105.59;5034771;28;20030;-68
2023/07/03 01:45:44;;;;;;;7.53;6.22;;;;;;;17.74;nan;100107.97;5034769;28;20014;-68
2023/07/03 01:48:10;;;;;;;7.95;6.32;;;;;;;17.74;nan;100107.97;5034871;28;20033;-68
2023/07/03 01:50:38;;;;;;;6.85;5.88;;;;;;;17.71;nan;100112.00;5036054;28;20505;-69
2023/07/03 01:53:17;;;;;;;8.38;5.90;;;;;;;17.65;nan;100111.25;5033255;28;20036;-70
2023/07/03 01:55:48;;;;;;;8.68;6.15;;;;;;;17.67;nan;100112.81;5032788;28;20770;-68
2023/07/03 01:58:34;;;;;;;8.70;5.60;;;;;;;17.65;nan;100121.91;5036177;28;20019;-68
2023/07/03 02:01:04;;;;;;;8.80;5.57;;;;;;;17.56;nan;100115.56;5032661;28;20082;-69
2023/07/03 02:03:32;;;;;;;6.63;5.85;;;;;;;17.54;nan;100123.03;5035100;28;20005;-68
2023/07/03 02:06:04;;;;;;;4.78;3.90;;;;;;;17.46;nan;100118.31;5033954;28;20037;-70
2023/07/03 02:08:31;;;;;;;7.65;3.28;;;;;;;17.16;nan;100093.50;5032632;28;20087;-68
2023/07/03 02:10:56;;;;;;;6.00;3.75;;;;;;;17.27;nan;100130.69;5034259;28;20107;-67
2023/07/03 02:13:22;;;;;;;5.65;3.70;;;;;;;17.26;nan;100129.09;5034394;28;20026;-66
2023/07/03 02:15:47;;;;;;;6.63;4.60;;;;;;;17.22;nan;100129.66;5034387;28;20306;-69
2023/07/03 02:18:17;;;;;;;10.98;4.60;;;;;;;17.21;nan;100136.06;5034848;28;20020;-68
2023/07/03 02:20:44;;;;;;;6.95;4.18;;;;;;;17.13;nan;100130.50;5035736;28;20104;-67
2023/07/03 02:23:09;;;;;;;6.78;3.95;;;;;;;17.17;nan;100147.53;5035923;28;20032;-67
2023/07/03 02:25:34;;;;;;;5.53;4.50;;;;;;;17.16;nan;100152.03;5034690;28;20551;-69
2023/07/03 02:28:00;;;;;;;11.35;7.00;;;;;;;17.15;nan;100150.44;5043625;28;20067;-69
2023/07/03 02:30:25;;;;;;;8.82;6.05;;;;;;;17.15;nan;100155.78;5038596;28;20025;-68
2023/07/03 02:32:50;;;;;;;7.25;3.90;;;;;;;17.15;nan;100147.00;5034991;28;20104;-69
2023/07/03 02:35:16;;;;;;;7.20;4.20;;;;;;;17.12;nan;100147.53;5036541;28;20024;-67
2023/07/03 02:37:41;;;;;;;7.43;4.45;;;;;;;17.11;nan;100141.41;5036053;28;20017;-69
2023/07/03 02:40:13;;;;;;;9.52;4.68;;;;;;;17.07;nan;100148.38;5034664;28;20083;-69
2023/07/03 02:42:38;;;;;;;10.35;4.53;;;;;;;17.04;nan;100151.56;5035535;28;20018;-68
2023/07/03 02:45:05;;;;;;;9.68;5.65;;;;;;;17.00;nan;100153.19;5036857;28;20102;-69
2023/07/03 02:47:36;;;;;;;11.63;7.45;;;;;;;17.00;nan;100158.53;5039424;28;20458;-69
2023/07/03 02:50:03;;;;;;;11.63;6.97;;;;;;;16.93;nan;100148.16;5037839;28;20033;-70
2023/07/03 02:52:28;;;;;;;9.85;5.20;;;;;;;16.97;nan;100151.06;5038353;28;20040;-69
2023/07/03 02:54:53;;;;;;;9.75;5.22;;;;;;;16.96;nan;100154.81;5046407;28;20049;-70
2023/07/03 02:57:19;;;;;;;11.93;7.00;;;;;;;16.93;nan;100150.03;5038168;28;20021;-69
2023/07/03 02:59:45;;;;;;;9.82;4.85;;;;;;;16.92;nan;100151.09;5036999;28;20025;-69
2023/07/03 03:02:10;;;;;;;8.65;4.53;;;;;;;16.94;nan;100155.06;5036863;28;20010;-69
2023/07/03 03:04:35;;;;;;;17.05;5.13;;;;;;;16.92;nan;100145.78;5038088;28;20075;-69
2023/07/03 03:07:01;;;;;;;7.65;5.30;;;;;;;16.93;nan;100152.69;5035138;28;20093;-69
2023/07/03 03:09:26;;;;;;;10.10;4.65;;;;;;;16.91;nan;100152.16;5036731;28;20119;-70
2023/07/03 03:11:51;;;;;;;7.45;4.90;;;;;;;16.89;nan;100163.06;5038070;28;20060;-69
2023/07/03 03:14:17;;;;;;;7.65;4.60;;;;;;;16.82;nan;100156.47;5039160;28;20416;-69
2023/07/03 03:16:42;;;;;;;6.13;3.67;;;;;;;16.80;nan;100154.06;5037043;28;20055;-67
2023/07/03 03:19:08;;;;;;;7.03;3.45;;;;;;;16.60;nan;100133.63;5036456;28;20025;-69
2023/07/03 03:21:33;;;;;;;6.63;3.88;;;;;;;16.74;nan;100153.25;5036189;28;20075;-69
2023/07/03 03:23:58;;;;;;;9.07;4.22;;;;;;;16.70;nan;100143.44;5036248;28;20021;-69
2023/07/03 03:26:24;;;;;;;6.72;4.63;;;;;;;16.64;nan;100145.34;5041089;28;20025;-69
2023/07/03 03:28:50;;;;;;;12.50;6.20;;;;;;;16.70;nan;100154.06;5036362;28;20108;-69
2023/07/03 03:31:15;;;;;;;8.95;5.38;;;;;;;16.68;nan;100151.69;5037379;28;20112;-69
2023/07/03 03:33:41;;;;;;;11.57;7.53;;;;;;;16.69;nan;100157.78;5034979;28;20111;-69
2023/07/03 03:36:07;;;;;;;11.15;6.60;;;;;;;16.66;nan;100151.16;5032668;28;20028;-67
2023/07/03 03:38:32;;;;;;;13.27;6.78;;;;;;;16.73;nan;100154.31;5033927;28;20026;-69
2023/07/03 03:41:02;;;;;;;12.35;6.15;;;;;;;16.78;nan;100162.31;5040906;28;20071;-69
2023/07/03 03:43:27;;;;;;;9.90;6.30;;;;;;;16.87;nan;100161.75;5033318;28;20032;-69
2023/07/03 03:45:57;;;;;;;11.93;6.18;;;;;;;16.94;nan;100155.06;5034901;28;20033;-68
2023/07/03 03:48:23;;;;;;;9.70;5.68;;;;;;;17.07;nan;100169.66;5038534;28;20031;-66
2023/07/03 03:50:49;;;;;;;11.63;5.80;;;;;;;17.15;nan;100155.78;5036270;28;20056;-69
2023/07/03 03:53:14;;;;;;;15.90;5.85;;;;;;;17.26;nan;100158.38;5035488;28;20029;-69
2023/07/03 03:55:40;;;;;;;7.88;4.72;;;;;;;17.34;nan;100165.78;5037409;28;20023;-69
2023/07/03 03:58:05;;;;;;;11.75;4.78;;;;;;;17.31;nan;100147.69;5035890;28;20017;-69
2023/07/03 04:00:30;;;;;;;8.95;4.85;;;;;;;17.50;nan;100161.16;5036762;28;20017;-68
2023/07/03 04:02:56;;;;;;;15.00;4.47;;;;;;;17.68;nan;100168.47;5034680;28;20349;-69
2023/07/03 04:05:22;;;;;;;7.82;4.38;;;;;;;17.78;nan;100172.94;5036941;28;20025;-69
2023/07/03 04:07:47;;;;;;;8.10;3.95;;;;;;;17.89;nan;100171.03;5035663;28;20041;-69
2023/07/03 04:10:13;;;;;;;7.35;3.92;;;;;;;17.93;nan;100156.84;5035530;28;20063;-67
2023/07/03 04:12:38;;;;;;;7.88;4.00;;;;;;;18.03;nan;100164.78;5038316;28;20048;-68
2023/07/03 04:15:05;;;;;;;7.22;4.10;;;;;;;18.16;nan;100165.19;5035820;28;20666;-69
2023/07/03 04:17:30;;;;;;;8.75;4.10;;;;;;;18.25;nan;100169.63;5037045;28;20017;-69
2023/07/03 04:19:56;;;;;;;6.82;4.32;;;;;;;18.34;nan;100169.00;5033418;28;20399;-69
2023/07/03 04:22:21;;;;;;;7.18;3.90;;;;;;;;;;5035348;28;20075;-69
2023/07/03 04:24:46;;;;;;;11.05;4.15;;;;;;;18.57;nan;100156.78;5036339;28;20028;-69
2023/07/03 04:27:12;;;;;;;8.27;3.88;;;;;;;;;;5034119;28;20033;-70
2023/07/03 04:29:37;;;;;;;7.80;3.60;;;;;;;;;;5036358;28;20053;-69
2023/07/03 04:32:02;;;;;;;6.75;3.67;;;;;;;18.90;nan;100115.84;5035570;28;20025;-69
2023/07/03 04:34:28;;;;;;;6.00;3.60;;;;;;;;;;5039076;28;20104;-70
2023/07/03 04:36:53;;;;;;;5.28;3.80;;;;;;;;;;5038127;28;20028;-70
2023/07/03 04:39:18;;;;;;;7.70;3.70;;;;;;;;;;5034619;28;20014;-68
2023/07/03 04:41:44;;;;;;;9.15;3.58;;;;;;;19.25;nan;100115.63;5036374;28;20018;-69
2023/07/03 04:44:12;;;;;;;5.90;4.05;;;;;;;19.30;nan;100108.34;5035741;28;20384;-69
2023/07/03 04:46:38;;;;;;;13.25;4.20;;;;;;;;;;5036718;28;20017;-70
2023/07/03 04:49:04;;;;;;;5.35;3.80;;;;;;;19.44;nan;100084.38;5048847;28;20041;-70
2023/07/03 04:51:30;;;;;;;8.73;3.63;;;;;;;19.52;nan;100112.28;5035597;28;20475;-68
2023/07/03 04:53:58;;;;;;;10.35;3.67;;;;;;;19.66;nan;100134.50;5035335;28;20041;-68
2023/07/03 04:56:24;;;;;;;10.00;4.10;;;;;;;19.71;nan;100137.13;5036747;28;20025;-68
2023/07/03 04:58:50;;;;;;;9.25;4.10;;;;;;;;;;5036338;28;20425;-67
2023/07/03 05:01:15;;;;;;;9.27;3.65;;;;;;;;;;5037569;28;20116;-69
2023/07/03 05:03:41;;;;;;;8.20;3.80;;;;;;;19.95;nan;100141.53;5037505;28;20519;-68
2023/07/03 05:06:06;;;;;;;7.28;4.10;;;;;;;19.95;nan;100098.78;5035170;28;20021;-68
2023/07/03 05:08:32;;;;;;;6.43;3.95;;;;;;;19.92;nan;100137.59;5035135;28;20043;-68
2023/07/03 05:10:59;;;;;;;6.55;3.38;;;;;;;19.94;nan;100123.91;5036952;28;20128;-69
2023/07/03 05:13:25;;;;;;;8.20;3.95;;;;;;;20.15;nan;100157.22;5034859;28;20041;-68
2023/07/03 05:15:51;;;;;;;14.48;4.20;;;;;;;20.21;nan;100138.41;5037180;28;20036;-68
2023/07/03 05:18:16;;;;;;;7.72;4.30;;;;;;;20.25;nan;100203.56;5037847;28;20018;-69
2023/07/03 05:20:44;;;;;;;5.40;3.50;;;;;;;20.33;nan;100157.44;5036539;28;20039;-68
2023/07/03 05:23:15;;;;;;;7.03;4.05;;;;;;;20.42;nan;100150.31;5034118;28;20014;-68
2023/07/03 05:25:45;;;;;;;8.23;4.03;;;;;;;20.54;nan;100150.63;5067049;28;20036;-68
2023/07/03 05:28:11;;;;;;;6.45;3.50;;;;;;;20.58;nan;100165.00;5037397;28;20036;-68
2023/07/03 05:30:36;;;;;;;7.55;3.78;;;;;;;20.60;nan;100157.47;5034431;28;20531;-69
2023/07/03 05:33:02;;;;;;;10.82;3.90;;;;;;;20.63;nan;100198.88;5035810;28;20031;-68
2023/07/03 05:35:27;;;;;;;14.18;4.43;;;;;;;20.73;nan;100174.59;5034643;28;20025;-68
2023/07/03 05:37:52;;;;;;;5.43;4.05;;;;;;;20.89;nan;100159.03;5034933;28;20035;-69
2023/07/03 05:40:18;;;;;;;8.15;4.47;;;;;;;20.96;nan;100229.03;5042508;28;20013;-68
2023/07/03 05:42:43;;;;;;;8.73;4.30;;;;;;;21.04;nan;100158.72;5036607;28;20023;-68
2023/07/03 05:45:09;;;;;;;9.63;4.07;;;;;;;21.03;nan;100133.03;5033932;28;20395;-68
2023/07/03 05:47:35;;;;;;;8.50;4.03;;;;;;;21.08;nan;100168.84;5034578;28;20014;-68
2023/07/03 05:50:00;;;;;;;9.60;4.25;;;;;;;;;;5034155;28;20435;-68
2023/07/03 05:52:26;;;;;;;7.65;4.22;;;;;;;21.25;nan;100177.03;5033727;28;20014;-67
2023/07/03 05:54:51;;;;;;;11.90;4.35;;;;;;;21.31;nan;100175.81;5033223;28;20029;-68
2023/07/03 05:57:17;;;;;;;10.05;4.00;;;;;;;21.34;nan;100172.53;5032902;28;20147;-68
2023/07/03 05:59:42;;;;;;;7.47;3.80;;;;;;;21.40;nan;100170.56;5037573;28;20369;-67
2023/07/03 06:02:11;;;;;;;12.05;4.00;;;;;;;21.45;nan;100184.66;5065385;28;20020;-67
2023/07/03 06:04:37;;;;;;;5.15;3.60;;;;;;;21.54;nan;100167.84;5034512;28;20136;-68
2023/07/03 06:07:03;;;;;;;11.02;3.75;;;;;;;21.59;nan;100136.34;5035180;28;20040;-68
2023/07/03 06:09:28;;;;;;;6.47;3.33;;;;;;;21.62;nan;100185.84;5035350;28;20033;-68
2023/07/03 06:11:55;;;;;;;8.23;4.15;;;;;;;21.59;nan;100224.75;5034105;28;20100;-68
2023/07/03 06:14:22;;;;;;;7.05;3.83;;;;;;;21.56;nan;100171.00;5035855;28;20380;-70
2023/07/03 06:16:48;;;;;;;8.25;4.30;;;;;;;;;;5037151;28;20025;-68
2023/07/03 06:19:19;;;;;;;9.77;4.30;;;;;;;21.60;nan;100161.28;5041546;28;20025;-69
2023/07/03 06:21:45;;;;;;;8.68;4.30;;;;;;;21.59;nan;100186.47;5036695;28;20013;-68
2023/07/03 06:24:11;;;;;;;8.93;4.25;;;;;;;;;;5038603;28;20095;-70
2023/07/03 06:26:39;;;;;;;8.25;4.25;;;;;;;21.53;nan;100174.31;5037573;28;20453;-70
2023/07/03 06:29:06;;;;;;;8.13;3.80;;;;;;;21.61;nan;100168.19;5038343;28;20034;-69
2023/07/03 06:31:32;;;;;;;6.43;3.63;;;;;;;21.65;nan;100198.66;5043022;28;20071;-70
2023/07/03 06:33:57;;;;;;;8.80;3.88;;;;;;;21.74;nan;100182.63;5039512;28;20020;-70
2023/07/03 06:36:23;;;;;;;8.65;3.70;;;;;;;21.88;nan;100189.53;5040750;28;20017;-70
2023/07/03 06:38:52;;;;;;;8.45;4.30;;;;;;;21.93;nan;100210.03;5041934;28;20014;-70
2023/07/03 06:41:18;;;;;;;7.90;3.70;;;;;;;21.95;nan;100201.69;5036438;28;20053;-69
2023/07/03 06:43:44;;;;;;;7.40;3.88;;;;;;;21.98;nan;100185.81;5041782;28;20184;-70
2023/07/03 06:46:10;;;;;;;8.10;3.78;;;;;;;;;;5035989;28;20021;-70
2023/07/03 06:48:36;;;;;;;9.13;3.90;;;;;;;;;;5038485;28;20040;-70
2023/07/03 06:51:05;;;;;;;8.30;3.95;;;;;;;22.13;nan;100211.44;5042091;28;20017;-69
2023/07/03 06:53:31;;;;;;;8.75;4.28;;;;;;;22.19;nan;100212.09;5040257;28;21239;-70
2023/07/03 06:55:57;;;;;;;8.57;3.67;;;;;;;22.24;nan;100203.94;5038300;28;20014;-70
2023/07/03 06:58:23;;;;;;;8.55;3.95;;;;;;;22.26;nan;100189.13;5046316;28;20081;-70
2023/07/03 07:00:49;;;;;;;5.38;3.33;;;;;;;22.30;nan;100171.31;5035744;28;20026;-70
2023/07/03 07:03:14;;;;;;;6.85;4.13;;;;;;;;;;5040858;28;20110;-70
2023/07/03 07:05:39;;;;;;;5.87;3.90;;;;;;;22.41;nan;100217.47;5036553;28;20059;-68
2023/07/03 07:08:05;;;;;;;6.63;4.45;;;;;;;22.42;nan;100220.94;5038724;28;21897;-69
2023/07/03 07:10:30;;;;;;;6.97;4.13;;;;;;;22.44;nan;100229.47;5043700;28;20053;-69
2023/07/03 07:12:56;;;;;;;7.80;4.35;;;;;;;22.40;nan;100236.53;5038945;28;20080;-68
2023/07/03 07:15:21;;;;;;;7.22;4.07;;;;;;;22.47;nan;100242.25;5035001;28;20028;-68
2023/07/03 07:17:47;;;;;;;8.68;3.95;;;;;;;22.52;nan;100162.41;5043467;28;20025;-68
2023/07/03 07:20:12;;;;;;;7.88;4.28;;;;;;;22.56;nan;100212.78;5036925;28;20025;-68
2023/07/03 07:22:37;;;;;;;7.45;4.18;;;;;;;22.60;nan;100198.44;5035678;28;20024;-69
2023/07/03 07:25:03;;;;;;;8.80;4.33;;;;;;;22.72;nan;100193.28;5038978;28;20040;-68
2023/07/03 07:27:28;;;;;;;7.10;4.45;;;;;;;22.73;nan;100219.00;5038462;28;20767;-68
2023/07/03 07:29:54;;;;;;;6.18;3.92;;;;;;;;;;5038115;28;20033;-68
2023/07/03 07:32:20;;;;;;;8.57;4.53;;;;;;;22.80;nan;100189.03;5036142;28;20062;-68
2023/07/03 07:34:45;;;;;;;6.40;4.22;;;;;;;22.84;nan;100208.78;5035877;28;20270;-68
2023/07/03 07:37:11;;;;;;;7.38;4.35;;;;;;;22.89;nan;100211.31;5040746;28;20024;-68
2023/07/03 07:39:42;;;;;;;5.60;4.00;;;;;;;22.93;nan;100209.56;5037096;28;20100;-68
2023/07/03 07:42:08;;;;;;;7.72;4.45;;;;;;;22.96;nan;100231.53;5044309;28;20629;-67
2023/07/03 07:44:33;;;;;;;9.18;4.50;;;;;;;23.01;nan;100224.19;5038632;28;20017;-70
2023/07/03 07:46:59;;;;;;;7.25;3.78;;;;;;;23.04;nan;100236.19;5038698;28;20037;-66
2023/07/03 07:49:24;;;;;;;6.72;3.78;;;;;;;23.07;nan;100265.09;5037690;28;20025;-67
2023/07/03 07:51:50;;;;;;;8.10;3.95;;;;;;;23.16;nan;100227.53;5036857;28;20396;-68
2023/07/03 07:54:15;;;;;;;10.27;3.88;;;;;;;23.21;nan;100177.13;5037267;28;20062;-66
2023/07/03 07:56:40;;;;;;;7.35;3.40;;;;;;;23.26;nan;100217.25;5037158;28;20052;-67
2023/07/03 07:59:06;;;;;;;6.07;3.67;;;;;;;23.34;nan;100229.09;5039423;28;20017;-67
2023/07/03 08:01:31;;;;;;;5.35;3.60;;;;;;;23.34;nan;100269.41;5036908;28;20062;-68
2023/07/03 08:03:57;;;;;;;14.13;3.35;;;;;;;23.45;nan;100246.50;5036551;28;20025;-68
2023/07/03 08:06:22;;;;;;;7.97;3.45;;;;;;;23.63;nan;100201.59;5036592;28;20026;-67
2023/07/03 08:08:49;;;;;;;5.28;3.65;;;;;;;23.69;nan;100156.53;5036446;28;20029;-68
2023/07/03 08:11:15;;;;;;;6.22;4.10;;;;;;;23.77;nan;100277.53;5034471;28;20191;-67
2023/07/03 08:13:41;;;;;;;9.40;3.80;;;;;;;23.85;nan;100208.75;5035388;28;20520;-68
2023/07/03 08:16:08;;;;;;;7.18;3.63;;;;;;;23.93;nan;100274.38;5033819;28;20021;-67
2023/07/03 08:18:34;;;;;;;6.57;3.50;;;;;;;24.05;nan;100287.97;5036156;28;20010;-68
2023/07/03 08:20:59;;;;;;;9.23;3.58;;;;;;;24.09;nan;100262.03;5038497;28;20086;-67
2023/07/03 08:23:24;;;;;;;6.07;3.25;;;;;;;24.16;nan;100240.81;5036040;28;20034;-68
2023/07/03 08:25:52;;;;;;;8.63;3.42;;;;;;;24.23;nan;100242.22;5036267;28;20025;-68
2023/07/03 08:28:18;;;;;;;7.80;3.70;;;;;;;24.23;nan;100283.38;5035306;28;20059;-68
2023/07/03 08:30:43;;;;;;;4.75;3.10;;;;;;;24.31;nan;100203.75;5037689;28;20467;-68
2023/07/03 08:33:08;;;;;;;4.68;3.08;;;;;;;24.37;nan;100227.47;5037236;28;20021;-69
2023/07/03 08:35:34;;;;;;;5.60;3.60;;;;;;;24.43;nan;100211.94;5035037;28;20018;-69
2023/07/03 08:38:00;;;;;;;6.05;2.92;;;;;;;24.48;nan;100249.47;5036334;28;20044;-67
2023/07/03 08:40:25;;;;;;;4.43;2.88;;;;;;;;;;5036070;28;20028;-68
2023/07/03 08:42:58;;;;;;;6.47;3.42;;;;;;;24.66;nan;100244.78;5035699;28;20032;-68
2023/07/03 08:45:34;;;;;;;7.78;3.03;;;;;;;24.74;nan;100229.72;5035857;28;20676;-68
2023/07/03 08:48:01;;;;;;;4.45;3.10;;;;;;;24.75;nan;100294.00;5037289;28;20025;-68
2023/07/03 08:50:28;;;;;;;11.27;2.78;;;;;;;24.92;nan;100230.41;5037157;28;20267;-67
2023/07/03 08:53:03;;;;;;;6.43;2.90;;;;;;;24.94;nan;100269.38;5033769;28;20488;-68
2023/07/03 08:55:42;;;;;;;5.88;3.13;;;;;;;25.04;nan;100219.72;5035125;28;20088;-69
2023/07/03 08:58:08;;;;;;;3.77;2.80;;;;;;;25.15;nan;100230.91;5034078;28;20451;-69
2023/07/03 09:00:43;;;;;;;6.05;3.10;;;;;;;25.22;nan;100252.78;5036070;28;20049;-69
2023/07/03 09:03:30;;;;;;;5.15;2.90;;;;;;;25.46;nan;100249.44;5033703;28;20017;-68
2023/07/03 09:06:06;;;;;;;4.93;2.33;;;;;;;25.46;nan;100282.56;5035341;28;20044;-69
2023/07/03 09:09:27;;;;;;;6.90;2.70;;;;;;;25.71;nan;100249.56;5034797;28;20453;-69
2023/07/03 09:12:13;;;;;;;4.15;2.60;;;;;;;25.92;nan;100239.56;5020057;28;20122;-70
2023/07/03 09:14:47;;;;;;;4.38;2.45;;;;;;;25.98;nan;100218.53;5034880;28;20037;-70
2023/07/03 09:17:13;;;;;;;4.57;2.38;;;;;;;25.95;nan;100289.38;5035875;28;20026;-70
2023/07/03 09:19:43;;;;;;;4.80;2.40;;;;;;;26.20;nan;100238.97;5037668;28;20029;-69
2023/07/03 09:22:16;;;;;;;3.08;2.35;;;;;;;26.22;nan;100220.53;5035148;28;20570;-69
2023/07/03 09:24:45;;;;;;;3.58;2.28;;;;;;;26.31;nan;100237.41;5034465;28;20493;-69
2023/07/03 09:27:22;;;;;;;;;;;;;;;26.40;nan;100250.81;5038945;28;20456;-69
2023/07/03 09:29:49;;;;;;;4.50;1.98;;;;;;;26.37;nan;100227.97;5033146;28;20318;-69
2023/07/03 09:32:26;;;;;;;3.63;2.03;;;;;;;26.45;nan;100231.69;5036805;28;20009;-68
2023/07/03 09:35:02;;;;;;;2.28;1.90;;;;;;;26.44;nan;100290.31;5032281;28;20056;-69
2023/07/03 09:37:28;;;;;;;5.60;2.15;;;;;;;26.52;nan;100224.59;5035641;28;20380;-69
2023/07/03 09:39:56;;;;;;;3.03;2.00;;;;;;;26.55;nan;100242.06;5035483;28;20028;-68
2023/07/03 09:42:22;;;;;;;3.40;1.80;;;;;;;26.59;nan;100223.31;5036128;28;20020;-70
2023/07/03 09:44:49;;;;;;;3.85;1.92;;;;;;;26.65;nan;100236.25;5034777;28;20021;-70
2023/07/03 09:47:28;;;;;;;3.25;2.28;;;;;;;26.72;nan;100246.47;5035506;28;20024;-69
2023/07/03 09:50:01;;;;;;;5.28;2.58;;;;;;;26.61;nan;100210.25;5037697;28;20490;-69
2023/07/03 09:52:26;;;;;;;4.18;1.90;;;;;;;26.77;nan;100226.53;5038001;28;20086;-69
2023/07/03 09:54:53;;;;;;;4.40;2.33;;;;;;;26.79;nan;100213.50;5039962;28;20472;-69
2023/07/03 09:57:28;;;;;;;4.38;3.00;;;;;;;26.86;nan;100214.50;5041848;28;20009;-69
2023/07/03 10:00:05;;;;;;;4.95;2.10;;;;;;;26.93;nan;100252.53;5037601;28;20029;-69
2023/07/03 10:02:31;;;;;;;6.32;2.70;;;;;;;27.03;nan;100237.00;5037353;28;20043;-69
2023/07/03 10:04:56;;;;;;;6.00;2.30;;;;;;;27.01;nan;100221.16;5039225;28;20261;-68
2023/07/03 10:07:22;;;;;;;4.73;2.50;;;;;;;27.10;nan;100221.78;5036521;28;20663;-68
2023/07/03 10:09:48;;;;;;;7.10;2.67;;;;;;;27.18;nan;100230.91;5036754;28;20294;-70
2023/07/03 10:12:33;;;;;;;7.55;2.65;;;;;;;27.28;nan;100241.28;5039945;28;20040;-68
2023/07/03 10:15:25;;;;;;;4.10;2.25;;;;;;;27.36;nan;100244.97;5045556;28;20014;-68
2023/07/03 10:17:52;;;;;;;4.82;2.80;;;;;;;27.34;nan;100212.88;5039370;28;20502;-68
2023/07/03 10:20:32;;;;;;;6.63;2.75;;;;;;;27.39;nan;100267.84;5036678;28;20017;-71
2023/07/03 10:23:00;;;;;;;3.95;2.45;;;;;;;27.54;nan;100232.75;5038652;28;20047;-70
2023/07/03 10:25:34;;;;;;;7.13;2.38;;;;;;;27.60;nan;100208.94;5039834;28;20398;-68
2023/07/03 10:28:06;;;;;;;3.33;2.22;;;;;;;27.66;nan;100250.88;5039048;28;20052;-69
2023/07/03 10:30:34;;;;;;;4.32;2.40;;;;;;;27.64;nan;100260.47;5038845;28;20018;-70
2023/07/03 10:33:05;;;;;;;6.68;2.25;;;;;;;27.66;nan;100215.69;5039280;28;20423;-70
2023/07/03 10:35:33;;;;;;;3.83;2.60;;;;;;;27.69;nan;100239.34;5038687;28;20041;-70
2023/07/03 10:38:01;;;;;;;3.13;2.60;;;;;;;27.73;nan;100212.41;5035908;28;20118;-70
2023/07/03 10:40:55;;;;;;;4.57;2.37;;;;;;;27.70;nan;100208.47;5044375;28;20024;-69
2023/07/03 10:43:23;;;;;;;5.32;2.33;;;;;;;27.69;nan;100249.38;5036946;28;20027;-68
2023/07/03 10:45:49;;;;;;;6.70;2.53;;;;;;;27.71;nan;100244.44;5039013;28;20016;-69
2023/07/03 10:48:19;;;;;;;3.42;2.33;;;;;;;27.77;nan;100200.56;5036949;28;20029;-70
2023/07/03 10:50:48;;;;;;;5.32;2.50;;;;;;;27.78;nan;100210.22;5067726;28;20025;-70
2023/07/03 10:53:26;;;;;;;10.13;2.42;;;;;;;;;;5038678;28;20032;-70
2023/07/03 10:56:21;;;;;;;3.10;2.20;;;;;;;27.95;nan;100243.56;5034568;28;20029;-70
2023/07/03 10:58:49;;;;;;;7.07;2.70;;;;;;;27.97;nan;100225.06;5054808;28;20024;-70
2023/07/03 11:01:25;;;;;;;5.18;2.47;;;;;;;28.05;nan;100234.16;5037671;28;20028;-69
2023/07/03 11:04:08;;;;;;;5.90;2.42;;;;;;;;;;5037456;28;20029;-70
2023/07/03 11:06:57;;;;;;;3.88;2.30;;;;;;;28.15;nan;100201.91;5037290;28;20040;-69
2023/07/03 11:09:33;;;;;;;7.05;3.00;;;;;;;28.21;nan;100216.78;5031474;28;20037;-69
2023/07/03 11:12:23;;;;;;;5.30;2.53;;;;;;;28.24;nan;100209.88;5037704;28;20048;-69
2023/07/03 11:14:51;;;;;;;3.72;2.28;;;;;;;28.24;nan;100206.38;5036231;28;20014;-69
2023/07/03 11:17:25;;;;;;;5.07;2.50;;;;;;;28.25;nan;100210.66;5038057;28;20485;-69
2023/07/03 11:20:05;;;;;;;4.45;2.45;;;;;;;28.31;nan;100172.16;5038022;28;20451;-69
2023/07/03 11:22:47;;;;;;;3.13;2.30;;;;;;;28.40;nan;100218.03;5037116;28;20026;-69
2023/07/03 11:25:26;;;;;;;8.68;2.60;;;;;;;28.45;nan;100227.81;5038186;28;21278;-69
2023/07/03 11:28:18;;;;;;;14.48;3.13;;;;;;;28.50;nan;100239.19;5041273;28;20108;-69
2023/07/03 11:30:45;;;;;;;6.20;2.28;;;;;;;28.46;nan;100232.88;5039021;28;20095;-72
2023/07/03 11:33:13;;;;;;;3.00;2.17;;;;;;;28.45;nan;100214.25;5035878;28;20590;-71
2023/07/03 11:35:56;;;;;;;4.38;2.50;;;;;;;28.48;nan;100205.47;5037619;28;20021;-70
2023/07/03 11:38:22;;;;;;;8.63;2.78;;;;;;;28.54;nan;100210.25;5040841;28;20071;-69
2023/07/03 11:40:53;;;;;;;12.27;3.20;;;;;;;28.59;nan;100214.63;5039186;28;20430;-70
2023/07/03 11:43:42;;;;;;;10.02;2.90;;;;;;;28.62;nan;100189.53;5034837;28;20151;-70
2023/07/03 11:46:12;;;;;;;5.97;2.60;;;;;;;28.71;nan;100206.41;5035872;28;20017;-69
2023/07/03 11:48:37;;;;;;;3.50;2.30;;;;;;;28.78;nan;100214.69;5038803;28;20136;-69
2023/07/03 11:51:05;;;;;;;2.90;2.30;;;;;;;28.83;nan;100222.53;5035358;28;20104;-70
2023/07/03 11:53:35;;;;;;;7.70;2.58;;;;;;;28.86;nan;100217.56;5038681;28;20047;-69
2023/07/03 11:56:03;;;;;;;3.83;2.10;;;;;;;28.91;nan;100220.78;5038166;28;20025;-72